Time;durP1;ratioP1;P1;durP2;ratioP2;P2;SDS_P1;SDS_P2;PMS_P1;PMS_P2;Temp;Humidity;BMP_temperature;BMP_pressure;BME280_temperature;BME280_humidity;BME280_pressure;Samples;Min_cycle;Max_cycle;Signal;HPM_P1;HPM_P2
2023/12/12 00:01:01;;;;;;;;;;;12.00;64.90;;;10.75;64.73;100077.97;12243947;19;19915;-84
2023/12/12 00:05:03;;;;;;;;;;;12.00;64.90;;;10.63;64.62;100066.53;12247485;19;19915;-84
2023/12/12 00:09:04;;;;;;;;;;;12.00;64.90;;;10.52;64.54;100051.59;12244283;19;19915;-85
2023/12/12 00:13:06;;;;;;;;;;;12.20;65.00;;;10.66;64.59;100089.00;12246014;19;19978;-84
2023/12/12 00:17:07;;;;;;;;;;;11.90;64.80;;;10.51;64.74;100076.03;12246682;19;20527;-84
2023/12/12 00:21:09;;;;;;;;;;;11.90;64.80;;;10.70;64.73;100104.38;12243354;19;19915;-84
2023/12/12 00:25:11;;;;;;;;;;;11.90;64.80;;;10.67;64.76;100106.38;12247256;19;20273;-84
2023/12/12 00:29:12;;;;;;;;;;;11.90;64.80;;;10.69;64.59;100117.53;12245811;19;19971;-84
2023/12/12 00:33:14;;;;;;;;;;;11.90;64.80;;;10.65;64.64;100127.34;12245174;19;19922;-84
2023/12/12 00:37:15;;;;;;;;;;;11.90;64.80;;;10.68;64.71;100139.38;12246345;19;19919;-84
2023/12/12 00:41:17;;;;;;;;;;;11.90;64.80;;;10.66;64.54;100144.69;12242229;19;19915;-84
2023/12/12 00:45:18;;;;;;;;;;;11.90;64.80;;;10.50;64.71;100128.34;12246256;19;20332;-84
2023/12/12 00:49:20;;;;;;;;;;;11.90;64.80;;;10.68;64.84;100157.66;12245480;19;19929;-84
2023/12/12 00:53:21;;;;;;;;;;;11.90;64.80;;;10.68;64.68;100166.31;12255734;19;20334;-84
2023/12/12 00:57:23;;;;;;;;;;;11.90;64.80;;;10.68;64.58;100168.09;12257628;19;20348;-84
2023/12/12 01:01:24;;;;;;;;;;;11.90;64.70;;;10.58;64.75;100168.66;12250268;19;19923;-84
2023/12/12 01:05:26;;;;;;;;;;;11.90;64.70;;;10.63;64.56;100189.28;12256824;19;19910;-84
2023/12/12 01:09:28;;;;;;;;;;;11.90;64.70;;;10.60;64.67;100190.31;12255536;19;19918;-84
2023/12/12 01:13:29;;;;;;;;;;;11.90;64.60;;;10.56;64.55;100186.22;12255803;19;19930;-84
2023/12/12 01:17:31;;;;;;;;;;;11.90;64.60;;;10.65;64.66;100204.84;12258045;19;19911;-84
2023/12/12 01:21:33;;;;;;;;;;;11.90;64.60;;;10.63;64.58;100211.00;12251852;19;19978;-84
2023/12/12 01:25:34;;;;;;;;;;;11.90;64.50;;;10.51;64.64;100193.50;12255600;19;19919;-84
2023/12/12 01:29:36;;;;;;;;;;;11.90;64.50;;;10.36;64.77;100182.25;12253537;19;19940;-84
2023/12/12 01:33:37;;;;;;;;;;;11.80;64.30;;;10.57;64.66;100215.78;12253413;19;19922;-84
2023/12/12 01:37:39;;;;;;;;;;;11.80;64.30;;;10.50;64.52;100207.47;12257232;19;19978;-84
2023/12/12 01:41:40;;;;;;;;;;;11.90;64.40;;;10.54;64.58;100208.16;12251602;19;19930;-84
2023/12/12 01:45:42;;;;;;;;;;;11.80;64.40;;;10.53;64.59;100209.91;12254667;19;20394;-84
2023/12/12 01:49:44;;;;;;;;;;;11.80;64.30;;;10.44;64.57;100189.59;12251518;19;19919;-84
2023/12/12 01:53:48;;;;;;;;;;;11.80;64.30;;;10.54;64.49;100211.59;12254011;19;20325;-84
2023/12/12 01:57:50;;;;;;;;;;;11.80;64.20;;;10.23;64.40;100163.03;12255915;19;19929;-84
2023/12/12 02:01:52;;;;;;;;;;;11.70;64.10;;;10.45;64.48;100216.53;12248305;19;19918;-84
2023/12/12 02:05:59;;;;;;;;;;;11.80;64.20;;;10.47;64.59;100225.94;12254425;19;19911;-84
2023/12/12 02:10:01;;;;;;;;;;;11.80;64.10;;;10.44;64.56;100230.53;12251000;19;19929;-84
2023/12/12 02:14:03;;;;;;;;;;;11.70;64.00;;;10.45;64.44;100229.59;12252803;19;19938;-84
2023/12/12 02:18:04;;;;;;;;;;;11.70;64.00;;;10.41;64.62;100240.22;12252592;19;19966;-84
2023/12/12 02:22:06;;;;;;;;;;;11.70;64.00;;;10.32;64.49;100224.31;12247515;19;20263;-84
2023/12/12 02:26:07;;;;;;;;;;;11.70;64.10;;;10.39;64.64;100238.66;12251800;19;19907;-84
2023/12/12 02:30:11;;;;;;;;;;;11.70;64.10;;;10.39;64.64;100246.47;12247413;19;20068;-84
2023/12/12 02:34:12;;;;;;;;;;;11.70;64.10;;;10.35;64.44;100237.16;12242797;19;19931;-84
2023/12/12 02:38:13;;;;;;;;;;;11.70;64.10;;;10.45;64.71;100246.13;12250553;19;19921;-84
2023/12/12 02:42:15;;;;;;;;;;;11.70;64.10;;;10.38;64.53;100237.81;12246333;19;19911;-84
2023/12/12 02:46:16;;;;;;;;;;;11.70;64.10;;;10.36;64.63;100233.63;12249345;19;19918;-84
2023/12/12 02:50:19;;;;;;;;;;;11.70;64.20;;;10.36;64.44;100242.28;12249490;19;20329;-84
2023/12/12 02:54:20;;;;;;;;;;;11.70;64.10;;;10.20;64.52;100208.44;12249547;19;19934;-84
2023/12/12 02:58:22;;;;;;;;;;;11.70;64.10;;;10.36;64.56;100246.66;12247240;19;20238;-84
2023/12/12 03:02:23;;;;;;;;;;;11.70;64.10;;;10.39;64.64;100249.09;12246481;19;19942;-84
2023/12/12 03:06:25;;;;;;;;;;;11.70;64.10;;;10.36;64.57;100237.06;12250842;19;19927;-84
2023/12/12 03:10:27;;;;;;;;;;;11.70;64.20;;;10.40;64.39;100250.78;12247057;19;19918;-84
2023/12/12 03:14:29;;;;;;;;;;;11.80;64.20;;;10.37;64.51;100256.19;12245127;19;19995;-84
2023/12/12 03:18:31;;;;;;;;;;;11.80;64.20;;;10.42;64.69;100256.72;12249414;19;20341;-84
2023/12/12 03:22:32;;;;;;;;;;;11.70;64.10;;;10.39;64.79;100249.09;12246001;19;19915;-84
2023/12/12 03:26:34;;;;;;;;;;;11.80;64.10;;;10.38;64.53;100248.25;12248788;19;19991;-84
2023/12/12 03:30:36;;;;;;;;;;;11.80;64.10;;;10.27;64.54;100234.16;12247181;19;19922;-84
2023/12/12 03:34:37;;;;;;;;;;;11.80;64.10;;;10.38;64.74;100257.84;12246972;19;19954;-84
2023/12/12 03:38:38;;;;;;;;;;;11.80;64.10;;;10.52;64.52;100277.88;12248839;19;19915;-84
2023/12/12 03:42:40;;;;;;;;;;;11.80;64.00;;;10.43;64.68;100268.84;12248044;19;19926;-84
2023/12/12 03:46:42;;;;;;;;;;;11.80;64.00;;;10.49;64.58;100273.69;12247708;19;20000;-84
2023/12/12 03:50:44;;;;;;;;;;;11.80;64.00;;;10.37;64.63;100261.41;12245039;19;19925;-84
2023/12/12 03:54:47;;;;;;;;;;;11.80;64.00;;;10.41;64.55;100270.72;12247324;19;19922;-84
2023/12/12 03:58:48;;;;;;;;;;;11.80;64.00;;;10.43;64.55;100271.47;12248070;19;19952;-84
2023/12/12 04:02:50;;;;;;;;;;;11.80;64.00;;;10.49;64.56;100286.75;12246305;19;19919;-84
2023/12/12 04:06:52;;;;;;;;;;;11.80;64.00;;;10.49;64.52;100289.34;12248656;19;19915;-84
2023/12/12 04:10:53;;;;;;;;;;;11.80;64.10;;;10.26;64.55;100245.53;12244033;19;19928;-84
2023/12/12 04:14:55;;;;;;;;;;;11.80;64.00;;;10.43;64.49;100271.47;12247285;19;19938;-84
2023/12/12 04:18:57;;;;;;;;;;;11.70;64.00;;;10.35;64.60;100263.28;12247038;19;19919;-84
2023/12/12 04:22:58;;;;;;;;;;;11.80;64.10;;;10.43;64.43;100276.69;12244481;19;19926;-84
2023/12/12 04:27:00;;;;;;;;;;;11.80;64.10;;;10.43;64.54;100281.91;12258184;19;19978;-84
2023/12/12 04:31:02;;;;;;;;;;;11.80;64.10;;;10.30;64.57;100273.97;12253629;19;19925;-84
2023/12/12 04:35:10;;;;;;;;;;;11.70;64.10;;;10.45;64.51;100287.00;12256386;19;20620;-84
2023/12/12 04:39:14;;;;;;;;;;;11.80;64.20;;;10.23;64.56;100251.75;12258699;19;19921;-84
2023/12/12 04:43:16;;;;;;;;;;;11.70;64.20;;;10.31;64.56;100275.66;12256373;19;19922;-84
2023/12/12 04:47:18;;;;;;;;;;;11.70;64.20;;;10.37;64.51;100293.56;12256285;19;19983;-84
2023/12/12 04:51:19;;;;;;;;;;;11.70;64.20;;;10.38;64.43;100299.63;12251949;19;19929;-84
2023/12/12 04:55:20;;;;;;;;;;;11.70;64.30;;;10.36;64.63;100301.47;12257905;19;20294;-84
2023/12/12 04:59:22;;;;;;;;;;;11.60;64.20;;;10.23;64.48;100269.19;12257136;19;20314;-84
2023/12/12 05:03:24;;;;;;;;;;;11.70;64.40;;;10.12;64.61;100265.47;12255446;19;19927;-84
2023/12/12 05:07:25;;;;;;;;;;;11.60;64.30;;;10.29;64.56;100290.59;12256967;19;20326;-84
2023/12/12 05:11:28;;;;;;;;;;;11.60;64.30;;;10.28;64.65;100296.72;12251563;19;20005;-84
2023/12/12 05:15:30;;;;;;;;;;;11.60;64.40;;;10.03;64.56;100252.16;12255867;19;19923;-84
2023/12/12 05:19:31;;;;;;;;;;;11.60;64.50;;;10.15;64.43;100270.53;12251379;19;19923;-84
2023/12/12 05:23:33;;;;;;;;;;;11.50;64.30;;;9.93;64.80;100239.66;12253823;19;20313;-84
2023/12/12 05:27:34;;;;;;;;;;;11.70;65.20;;;10.24;64.75;100291.78;12254477;19;19911;-84
2023/12/12 05:31:37;;;;;;;;;;;11.60;64.50;;;10.27;64.64;100304.63;12246101;19;20551;-84
2023/12/12 05:35:39;;;;;;;;;;;11.50;64.40;;;10.25;64.63;100303.88;12250029;19;19926;-84
2023/12/12 05:39:41;;;;;;;;;;;11.50;64.40;;;10.22;64.56;100311.88;12253560;19;20282;-84
2023/12/12 05:43:42;;;;;;;;;;;11.50;64.40;;;10.20;64.50;100315.41;12252309;19;19942;-84
2023/12/12 05:47:43;;;;;;;;;;;11.60;64.50;;;9.96;64.59;100281.22;12255910;19;19926;-84
2023/12/12 05:51:45;;;;;;;;;;;11.50;64.40;;;10.19;64.64;100321.56;12248631;19;19923;-84
2023/12/12 05:55:46;;;;;;;;;;;11.50;64.50;;;10.20;64.52;100333.69;12254187;19;19918;-84
2023/12/12 05:59:48;;;;;;;;;;;11.50;64.50;;;10.14;64.59;100323.63;12246905;19;20317;-84
2023/12/12 06:03:50;;;;;;;;;;;11.50;64.50;;;10.22;64.54;100340.59;12251192;19;19911;-84
2023/12/12 06:07:52;;;;;;;;;;;11.50;64.50;;;10.10;64.51;100326.50;12253244;19;19915;-84
2023/12/12 06:11:54;;;;;;;;;;;11.50;64.50;;;9.97;64.61;100300.31;12249570;19;19922;-84
2023/12/12 06:15:56;;;;;;;;;;;11.50;64.50;;;10.24;64.67;100351.78;12251866;19;19918;-84
2023/12/12 06:19:58;;;;;;;;;;;11.50;64.40;;;10.23;64.63;100355.31;12252378;19;20246;-84
2023/12/12 06:24:03;;;;;;;;;;;11.50;64.40;;;10.02;64.59;100324.38;12252854;19;19946;-84
2023/12/12 06:28:05;;;;;;;;;;;11.50;64.50;;;10.19;64.71;100363.31;12251708;19;19919;-84
2023/12/12 06:32:08;;;;;;;;;;;11.50;64.50;;;10.11;64.55;100349.06;12247373;19;19929;-84
2023/12/12 06:36:10;;;;;;;;;;;11.50;64.30;;;10.19;64.32;100363.31;12253794;19;19914;-85
2023/12/12 06:40:12;;;;;;;;;;;11.50;64.30;;;10.12;64.59;100356.78;12249651;19;19915;-84
2023/12/12 06:44:14;;;;;;;;;;;11.50;64.40;;;10.11;64.72;100370.78;12251182;19;19911;-86
2023/12/12 06:48:15;;;;;;;;;;;11.50;64.40;;;10.18;64.52;100379.09;12251054;19;19982;-85
2023/12/12 06:52:17;;;;;;;;;;;11.50;64.40;;;10.18;64.47;100381.69;12247644;19;20588;-89
2023/12/12 06:56:20;;;;;;;;;;;11.50;64.40;;;10.15;64.66;100380.09;12252381;19;19934;-85
2023/12/12 07:00:24;;;;;;;;;;;11.40;64.40;;;10.16;64.53;100384.38;12249635;19;19943;-85
2023/12/12 07:04:25;;;;;;;;;;;11.40;64.40;;;10.18;64.53;100402.56;12248687;19;20326;-83
2023/12/12 07:08:27;;;;;;;;;;;11.50;64.40;;;10.10;64.63;100379.53;12249589;19;19926;-82
2023/12/12 07:12:28;;;;;;;;;;;11.50;64.40;;;10.17;64.47;100398.25;12246035;19;19914;-83
2023/12/12 07:16:30;;;;;;;;;;;11.40;64.30;;;10.09;64.46;100390.88;12247173;19;19931;-84
2023/12/12 07:20:31;;;;;;;;;;;11.50;64.30;;;10.02;64.73;100386.97;12246444;19;20329;-84
2023/12/12 07:24:33;;;;;;;;;;;11.50;64.30;;;9.83;64.74;100355.91;12247289;19;19919;-84
2023/12/12 07:28:35;;;;;;;;;;;11.40;64.20;;;10.01;64.60;100379.22;12248109;19;19939;-84
2023/12/12 07:32:37;;;;;;;;;;;11.40;64.30;;;10.03;64.73;100385.19;12247146;19;19951;-84
2023/12/12 07:36:39;;;;;;;;;;;11.60;64.50;;;10.03;64.61;100388.63;12248684;19;19910;-85
2023/12/12 07:40:41;;;;;;;;;;;11.40;64.40;;;10.02;64.73;100391.31;12246149;19;19961;-84
2023/12/12 07:44:42;;;;;;;;;;;11.40;64.30;;;10.11;64.67;100407.28;12246662;19;20277;-84
2023/12/12 07:48:44;;;;;;;;;;;11.40;64.40;;;9.86;64.69;100362.72;12245761;19;19919;-84
2023/12/12 07:52:47;;;;;;;;;;;11.40;64.40;;;9.96;64.49;100376.88;12246186;19;20396;-84
2023/12/12 07:56:49;;;;;;;;;;;11.40;64.40;;;10.08;64.62;100402.25;12247424;19;19922;-84
2023/12/12 08:00:50;;;;;;;;;;;11.40;64.40;;;9.98;64.58;100382.84;12240494;19;19923;-85
2023/12/12 08:04:51;;;;;;;;;;;11.50;64.50;;;10.06;64.64;100404.09;12244245;19;19918;-84
2023/12/12 08:08:53;;;;;;;;;;;11.40;64.50;;;10.11;64.54;100407.28;12246058;19;19941;-83
2023/12/12 08:12:54;;;;;;;;;;;11.30;64.40;;;10.04;64.65;100400.75;12246582;19;20375;-84
2023/12/12 08:16:56;;;;;;;;;;;11.40;64.40;;;10.05;64.69;100412.03;12248560;19;19922;-84
2023/12/12 08:20:58;;;;;;;;;;;11.30;64.30;;;9.95;64.65;100396.06;12242247;19;19919;-85
2023/12/12 08:25:00;;;;;;;;;;;11.40;64.40;;;10.06;64.61;100419.75;12248700;19;19914;-83
2023/12/12 08:29:03;;;;;;;;;;;11.40;64.40;;;9.91;64.60;100394.56;12242033;19;19919;-83
2023/12/12 08:33:04;;;;;;;;;;;11.40;64.40;;;9.80;64.69;100382.13;12239869;19;19927;-84
2023/12/12 08:37:06;;;;;;;;;;;11.50;64.50;;;10.08;64.62;100430.97;12245605;19;19911;-83
2023/12/12 08:41:07;;;;;;;;;;;11.30;64.30;;;9.79;64.74;100390.06;12242191;19;19939;-84
2023/12/12 08:45:09;;;;;;;;;;;11.40;64.40;;;10.10;64.66;100436.06;12245532;19;19916;-83
2023/12/12 08:49:12;;;;;;;;;;;11.40;64.40;;;10.02;64.75;100426.09;12242935;19;20316;-84
2023/12/12 08:53:13;;;;;;;;;;;11.40;64.40;;;10.06;64.79;100439.81;12235099;19;20000;-83
2023/12/12 08:57:17;;;;;;;;;;;11.40;64.40;;;10.06;64.56;100443.25;12241442;19;19918;-83
2023/12/12 09:01:19;;;;;;;;;;;11.40;64.40;;;10.00;64.51;100438.38;12238212;19;19929;-83
2023/12/12 09:05:21;;;;;;;;;;;11.40;64.40;;;10.03;64.68;100440.81;12236285;19;19919;-83
2023/12/12 09:09:22;;;;;;;;;;;11.30;64.30;;;10.03;64.78;100443.44;12239997;19;20374;-83
2023/12/12 09:13:24;;;;;;;;;;;11.30;64.30;;;9.95;64.64;100432.59;12251286;19;19926;-83
2023/12/12 09:17:25;;;;;;;;;;;11.30;64.30;;;9.90;64.67;100425.03;12250952;19;19947;-84
2023/12/12 09:21:27;;;;;;;;;;;11.30;64.40;;;9.98;64.54;100435.03;12248472;19;19930;-84
2023/12/12 09:25:28;;;;;;;;;;;11.30;64.30;;;9.97;64.61;100435.97;12252532;19;20329;-85
2023/12/12 09:29:30;;;;;;;;;;;11.30;64.40;;;9.96;64.73;100444.69;12249399;19;19923;-83
2023/12/12 09:33:34;;;;;;;;;;;11.30;64.40;;;9.99;64.61;100441.94;12253020;19;19915;-83
2023/12/12 09:37:35;;;;;;;;;;;11.30;64.40;;;9.96;64.81;100440.34;12257422;19;19968;-83
2023/12/12 09:41:38;;;;;;;;;;;11.30;64.40;;;9.84;64.54;100419.31;12251572;19;19951;-83
2023/12/12 09:45:44;;;;;;;;;;;11.30;64.40;;;9.90;64.58;100438.06;12253112;19;19914;-82
2023/12/12 09:49:50;;;;;;;;;;;11.30;64.30;;;9.87;64.71;100433.03;12250519;19;19907;-82
2023/12/12 09:53:51;;;;;;;;;;;11.40;64.40;;;9.70;64.68;100407.06;12252708;19;20257;-83
2023/12/12 09:57:53;;;;;;;;;;;11.20;64.30;;;9.93;64.67;100440.50;12252417;19;20266;-82
2023/12/12 10:01:55;;;;;;;;;;;11.20;64.30;;;9.65;64.56;100398.69;12249945;19;19919;-83
2023/12/12 10:06:01;;;;;;;;;;;11.30;64.40;;;9.81;64.83;100422.13;12255087;19;19954;-83
2023/12/12 10:10:10;;;;;;;;;;;11.20;64.40;;;9.94;64.61;100452.63;12249324;19;19919;-84
2023/12/12 10:14:12;;;;;;;;;;;11.30;64.40;;;9.97;64.57;100454.22;12252698;19;20427;-83
2023/12/12 10:18:14;;;;;;;;;;;11.30;64.40;;;9.95;64.74;100449.06;12249880;19;19914;-83
2023/12/12 10:22:17;;;;;;;;;;;11.20;64.30;;;9.91;64.65;100450.19;12246482;19;19914;-83
2023/12/12 10:26:30;;;;;;;;;;;11.30;64.40;;;9.74;64.65;100419.00;12250468;19;19926;-83
2023/12/12 10:30:32;;;;;;;;;;;11.20;64.30;;;9.87;64.70;100429.59;12249064;19;19915;-83
2023/12/12 10:34:33;;;;;;;;;;;11.30;64.40;;;9.95;64.77;100443.03;12252314;19;19919;-84
2023/12/12 10:38:36;;;;;;;;;;;11.20;64.40;;;9.95;64.73;100438.63;12252414;19;19927;-84
2023/12/12 10:42:40;;;;;;;;;;;11.30;64.50;;;9.87;64.78;100416.53;12250501;19;19910;-84
2023/12/12 10:46:42;;;;;;;;;;;11.20;64.40;;;9.89;64.80;100423.34;12251619;19;19929;-83
2023/12/12 10:50:47;;;;;;;;;;;11.30;64.40;;;9.90;64.58;100413.75;12246934;19;19935;-83
2023/12/12 10:54:49;;;;;;;;;;;11.30;64.40;;;9.92;64.86;100411.91;12250476;19;20275;-84
2023/12/12 10:58:51;;;;;;;;;;;11.30;64.50;;;9.91;64.71;100411.06;12250597;19;19923;-84
2023/12/12 11:02:53;;;;;;;;;;;11.30;64.50;;;9.86;64.91;100391.41;12249889;19;19949;-83
2023/12/12 11:06:55;;;;;;;;;;;11.30;64.50;;;9.84;64.88;100395.84;12248652;19;19921;-82
2023/12/12 11:10:58;;;;;;;;;;;11.30;64.50;;;9.90;64.75;100398.09;12247222;19;19915;-84
2023/12/12 11:15:00;;;;;;;;;;;11.30;64.50;;;9.90;64.81;100398.94;12249126;19;19918;-84
2023/12/12 11:19:02;;;;;;;;;;;11.20;64.40;;;9.93;64.65;100392.69;12246921;19;19915;-83
2023/12/12 11:23:05;;;;;;;;;;;11.30;64.60;;;10.00;64.63;100399.25;12247606;19;19923;-83
2023/12/12 11:27:07;;;;;;;;;;;11.30;64.60;;;9.89;64.77;100373.78;12248247;19;20282;-84
2023/12/12 11:31:09;;;;;;;;;;;11.30;64.60;;;9.98;64.57;100378.47;12244678;19;19918;-84
2023/12/12 11:35:28;;;;;;;;;;;11.40;65.40;;;10.08;64.71;100388.38;12244971;19;19943;-84
2023/12/12 11:39:37;;;;;;;;;;;11.40;64.70;;;10.01;64.80;100369.63;12248078;19;19930;-84
2023/12/12 11:43:40;;;;;;;;;;;11.40;64.80;;;10.11;64.83;100391.63;12247791;19;19919;-84
2023/12/12 11:47:42;;;;;;;;;;;11.40;64.80;;;10.13;64.91;100383.75;12247999;19;19942;-84
2023/12/12 11:51:47;;;;;;;;;;;11.50;65.00;;;10.15;64.98;100367.06;12244940;19;19915;-86
2023/12/12 11:55:50;;;;;;;;;;;11.50;65.00;;;10.20;64.90;100374.59;12248197;19;19953;-84
2023/12/12 11:59:51;;;;;;;;;;;11.60;65.00;;;10.26;65.03;100373.38;12246007;19;20339;-84
2023/12/12 12:03:53;;;;;;;;;;;11.60;65.00;;;10.13;64.82;100350.66;12246579;19;20253;-84
2023/12/12 12:07:55;;;;;;;;;;;11.60;64.80;;;10.32;64.86;100373.91;12245516;19;19958;-84
2023/12/12 12:11:57;;;;;;;;;;;11.70;64.80;;;10.37;64.87;100371.03;12245392;19;19925;-84
2023/12/12 12:15:59;;;;;;;;;;;11.70;64.80;;;10.37;64.91;100358.81;12246808;19;20330;-85
2023/12/12 12:20:00;;;;;;;;;;;11.70;64.80;;;10.30;64.81;100334.00;12246117;19;19922;-84
2023/12/12 12:24:02;;;;;;;;;;;11.80;64.90;;;10.41;64.90;100343.81;12243316;19;20333;-84
2023/12/12 12:28:04;;;;;;;;;;;11.80;64.90;;;10.26;64.82;100309.00;12243646;19;19989;-84
2023/12/12 12:32:13;;;;;;;;;;;11.90;65.10;;;10.31;64.89;100296.53;12240473;19;19922;-83
2023/12/12 12:36:14;;;;;;;;;;;11.90;65.00;;;10.58;64.86;100340.16;12244897;19;19934;-83
2023/12/12 12:40:36;;;;;;;;;;;11.90;65.00;;;10.50;64.90;100319.72;12243653;19;19919;-83
2023/12/12 12:44:38;;;;;;;;;;;11.90;65.00;;;10.60;64.92;100325.25;12247145;19;19915;-83
2023/12/12 12:48:40;;;;;;;;;;;12.00;65.10;;;10.66;64.95;100332.69;12255415;19;20414;-83
2023/12/12 12:52:41;;;;;;;;;;;12.00;65.40;;;10.71;65.04;100335.84;12257059;19;19919;-84
2023/12/12 12:56:46;;;;;;;;;;;12.10;65.00;;;10.73;64.94;100333.16;12258176;19;19918;-83
2023/12/12 13:00:48;;;;;;;;;;;12.10;65.00;;;10.73;65.09;100320.94;12254780;19;19927;-84
2023/12/12 13:04:50;;;;;;;;;;;12.10;64.90;;;10.68;64.81;100315.16;12258496;19;19925;-83
2023/12/12 13:08:51;;;;;;;;;;;12.10;64.80;;;10.76;64.77;100317.28;12257283;19;20340;-83
2023/12/12 13:12:53;;;;;;;;;;;12.20;64.70;;;10.75;64.94;100302.56;12256312;19;19926;-84
2023/12/12 13:16:54;;;;;;;;;;;12.20;64.60;;;10.81;64.84;100313.47;12255875;19;19911;-84
2023/12/12 13:20:55;;;;;;;;;;;12.20;64.50;;;10.78;64.80;100312.81;12252140;19;19922;-84
2023/12/12 13:24:57;;;;;;;;;;;12.20;64.50;;;10.79;64.72;100314.50;12256613;19;19931;-84
2023/12/12 13:29:02;;;;;;;;;;;12.20;64.40;;;10.56;64.77;100282.81;12247284;19;20237;-83
2023/12/12 13:33:06;;;;;;;;;;;12.20;64.40;;;10.68;64.78;100298.66;12255083;19;19926;-83
2023/12/12 13:37:07;;;;;;;;;;;12.20;64.40;;;10.80;64.79;100313.53;12255434;19;20321;-84
2023/12/12 13:41:09;;;;;;;;;;;12.20;64.30;;;10.83;64.83;100318.59;12252744;19;19936;-84
2023/12/12 13:45:10;;;;;;;;;;;12.40;64.40;;;10.74;64.89;100304.31;12253670;19;19940;-84
2023/12/12 13:49:12;;;;;;;;;;;12.30;64.30;;;10.78;64.76;100324.09;12252131;19;20025;-84
2023/12/12 13:53:13;;;;;;;;;;;12.20;64.10;;;10.72;64.76;100323.63;12254745;19;20261;-84
2023/12/12 13:57:15;;;;;;;;;;;12.20;64.00;;;10.79;64.70;100340.59;12251539;19;20363;-84
2023/12/12 14:01:16;;;;;;;;;;;12.20;64.00;;;10.77;64.86;100338.06;12250593;19;19919;-84
2023/12/12 14:05:18;;;;;;;;;;;12.10;63.90;;;10.68;64.72;100325.59;12253872;19;20276;-83
2023/12/12 14:09:19;;;;;;;;;;;12.10;63.80;;;10.69;64.72;100334.28;12252753;19;19947;-83
2023/12/12 14:13:21;;;;;;;;;;;12.00;63.50;;;10.35;64.79;100289.38;12253660;19;19982;-83
2023/12/12 14:17:23;;;;;;;;;;;12.10;63.50;;;10.43;64.81;100300.19;12254910;19;19939;-84
2023/12/12 14:21:24;;;;;;;;;;;12.10;63.50;;;10.53;64.54;100322.19;12250986;19;19910;-84
2023/12/12 14:25:26;;;;;;;;;;;12.00;63.60;;;10.54;64.64;100328.22;12254505;19;19903;-83
2023/12/12 14:29:27;;;;;;;;;;;11.90;63.40;;;10.51;64.64;100328.44;12250314;19;20357;-84
2023/12/12 14:33:29;;;;;;;;;;;11.90;63.40;;;10.06;64.59;100268.44;12251824;19;19931;-84
2023/12/12 14:37:30;;;;;;;;;;;11.80;63.20;;;10.38;64.71;100312.66;12251177;19;19928;-84
2023/12/12 14:41:32;;;;;;;;;;;11.80;63.20;;;10.32;64.66;100306.06;12250225;19;19907;-83
2023/12/12 14:45:34;;;;;;;;;;;11.70;63.20;;;10.37;64.68;100327.50;12251962;19;19911;-83
2023/12/12 14:49:35;;;;;;;;;;;11.70;63.30;;;10.37;64.57;100318.84;12251161;19;20459;-85
2023/12/12 14:53:38;;;;;;;;;;;11.70;63.30;;;10.29;64.50;100319.28;12252599;19;20349;-85
2023/12/12 14:57:40;;;;;;;;;;;11.70;63.30;;;10.30;64.70;100330.56;12248391;19;19979;-85
2023/12/12 15:01:41;;;;;;;;;;;11.60;63.30;;;10.13;64.60;100308.06;12248680;19;19974;-84
2023/12/12 15:05:43;;;;;;;;;;;11.60;63.20;;;10.06;64.51;100301.53;12251457;19;19911;-84
2023/12/12 15:09:45;;;;;;;;;;;11.50;63.00;;;9.88;64.42;100279.97;12248080;19;19915;-84
2023/12/12 15:13:46;;;;;;;;;;;11.50;63.60;;;10.06;64.47;100311.97;12248060;19;19935;-84
2023/12/12 15:17:48;;;;;;;;;;;11.40;62.60;;;9.99;64.40;100308.91;12250352;19;21452;-84
2023/12/12 15:21:50;;;;;;;;;;;11.40;62.50;;;9.99;64.59;100311.50;12245200;19;19933;-84
2023/12/12 15:25:52;;;;;;;;;;;11.30;62.50;;;9.83;64.56;100289.84;12246189;19;20000;-84
2023/12/12 15:29:55;;;;;;;;;;;11.30;62.60;;;9.86;64.22;100303.56;12238625;19;19931;-84
2023/12/12 15:33:57;;;;;;;;;;;11.20;62.50;;;9.63;64.29;100268.41;12241248;19;19922;-84
2023/12/12 15:37:59;;;;;;;;;;;11.10;62.50;;;9.82;64.44;100298.63;12241965;19;19947;-84
2023/12/12 15:42:01;;;;;;;;;;;11.10;62.50;;;9.70;64.49;100281.94;12240027;19;19915;-84
2023/12/12 15:46:17;;;;;;;;;;;11.10;62.50;;;9.71;64.40;100289.66;12241704;19;19940;-85
2023/12/12 15:50:28;;;;;;;;;;;11.00;62.40;;;9.20;64.35;100210.94;12243414;19;19926;-85
2023/12/12 15:54:30;;;;;;;;;;;11.00;62.30;;;9.31;64.28;100228.56;12242779;19;19907;-84
2023/12/12 15:58:32;;;;;;;;;;;10.90;62.20;;;9.10;64.25;100194.19;12242918;19;19926;-84
2023/12/12 16:02:34;;;;;;;;;;;10.80;62.20;;;9.51;64.40;100279.56;12239799;19;19936;-84
2023/12/12 16:06:36;;;;;;;;;;;10.80;62.20;;;9.37;64.37;100251.69;12243002;19;19919;-84
2023/12/12 16:10:41;;;;;;;;;;;10.80;62.10;;;9.34;64.10;100254.44;12238663;19;20314;-84
2023/12/12 16:14:43;;;;;;;;;;;10.50;61.80;;;9.21;64.22;100240.47;12240468;19;20330;-84
2023/12/12 16:18:44;;;;;;;;;;;10.60;61.70;;;9.21;64.11;100254.34;12240441;19;20338;-84
2023/12/12 16:22:46;;;;;;;;;;;10.50;61.70;;;9.11;64.18;100237.53;12238793;19;19922;-84
2023/12/12 16:26:48;;;;;;;;;;;10.50;61.80;;;8.84;63.99;100201.72;12236154;19;20644;-84
2023/12/12 16:30:49;;;;;;;;;;;10.40;61.70;;;8.97;63.97;100234.91;12241601;19;19934;-84
2023/12/12 16:34:51;;;;;;;;;;;10.40;61.80;;;8.98;64.05;100247.81;12244500;19;19947;-84
2023/12/12 16:38:59;;;;;;;;;;;10.50;61.90;;;8.96;63.88;100254.03;12246260;19;19922;-84
2023/12/12 16:43:01;;;;;;;;;;;10.30;61.80;;;8.86;64.20;100245.91;12243612;19;19918;-84
2023/12/12 16:47:04;;;;;;;;;;;10.30;61.80;;;8.76;64.01;100237.75;12247170;19;19915;-84
2023/12/12 16:51:07;;;;;;;;;;;10.20;61.90;;;8.88;64.18;100248.41;12243459;19;19929;-84
2023/12/12 16:55:09;;;;;;;;;;;10.10;61.90;;;8.79;64.13;100231.53;12243982;19;19910;-84
2023/12/12 16:59:10;;;;;;;;;;;10.10;62.10;;;8.74;64.18;100218.78;12241971;19;19927;-84
2023/12/12 17:03:11;;;;;;;;;;;10.10;62.20;;;8.78;64.30;100228.09;12244000;19;20002;-84
2023/12/12 17:07:13;;;;;;;;;;;10.10;62.30;;;8.79;64.08;100227.16;12245213;19;19937;-84
2023/12/12 17:11:15;;;;;;;;;;;10.10;62.10;;;8.53;64.04;100181.78;12242765;19;19914;-84
2023/12/12 17:15:16;;;;;;;;;;;10.00;62.10;;;8.52;64.29;100180.09;12245482;19;19938;-84
2023/12/12 17:19:20;;;;;;;;;;;10.00;62.00;;;8.72;64.01;100209.38;12243595;19;19918;-84
2023/12/12 17:23:22;;;;;;;;;;;10.00;62.10;;;8.66;64.04;100196.72;12244771;19;19918;-84
2023/12/12 17:27:23;;;;;;;;;;;10.00;62.10;;;8.60;64.27;100203.09;12246240;19;19939;-85
2023/12/12 17:31:25;;;;;;;;;;;10.00;62.00;;;8.51;64.08;100182.81;12238835;19;19918;-84
2023/12/12 17:35:30;;;;;;;;;;;9.90;62.10;;;8.51;64.09;100183.63;12254517;19;19934;-84
2023/12/12 17:39:31;;;;;;;;;;;9.90;62.00;;;8.55;64.28;100181.69;12254086;19;20331;-84
2023/12/12 17:43:33;;;;;;;;;;;9.90;62.00;;;8.49;64.21;100167.25;12255321;19;19927;-84
2023/12/12 17:47:37;;;;;;;;;;;9.90;62.00;;;8.37;64.16;100158.34;12252005;19;20335;-83
2023/12/12 17:51:38;;;;;;;;;;;9.80;61.90;;;8.40;64.15;100158.22;12247507;19;19946;-83
2023/12/12 17:55:41;;;;;;;;;;;9.70;61.90;;;8.42;64.29;100158.09;12253305;19;19911;-84
2023/12/12 17:59:42;;;;;;;;;;;9.70;62.10;;;8.27;63.98;100136.34;12252573;19;19922;-84
2023/12/12 18:03:44;;;;;;;;;;;9.70;62.10;;;8.03;63.98;100093.50;12252679;19;19925;-84
2023/12/12 18:07:45;;;;;;;;;;;9.70;62.10;;;8.18;64.14;100114.31;12254420;19;19914;-84
2023/12/12 18:11:46;;;;;;;;;;;9.70;62.10;;;8.19;64.17;100108.16;12248921;19;19955;-84